createdAt,value
2022-10-18T00:00:06.884Z,86.67
2022-10-18T00:02:39.448Z,86.13
2022-10-18T00:05:06.477Z,86.41
2022-10-18T00:07:33.374Z,86.70
2022-10-18T00:10:00.391Z,86.71
2022-10-18T00:12:27.067Z,86.74
2022-10-18T00:14:53.759Z,86.73
2022-10-18T00:17:20.375Z,86.76
2022-10-18T00:19:50.304Z,87.23
2022-10-18T00:22:17.220Z,87.28
2022-10-18T00:24:44.737Z,87.66
2022-10-18T00:27:11.488Z,87.50
2022-10-18T00:29:38.141Z,87.37
2022-10-18T00:32:05.430Z,87.26
2022-10-18T00:34:32.061Z,87.35
2022-10-18T00:36:58.578Z,87.29
2022-10-18T00:39:25.389Z,87.21
2022-10-18T00:41:52.347Z,87.18
2022-10-18T00:44:18.908Z,87.37
2022-10-18T00:46:48.535Z,87.20
2022-10-18T00:49:35.639Z,87.00
2022-10-18T00:52:14.197Z,86.66
2022-10-18T00:54:44.360Z,86.38
2022-10-18T00:57:11.901Z,86.28
2022-10-18T00:59:39.846Z,86.29
2022-10-18T01:02:06.906Z,86.07
2022-10-18T01:04:34.599Z,85.83
2022-10-18T01:07:04.245Z,85.41
2022-10-18T01:09:45.142Z,85.64
2022-10-18T01:12:51.640Z,85.15
2022-10-18T01:15:27.791Z,85.27
2022-10-18T01:18:03.434Z,85.18
2022-10-18T01:20:39.186Z,85.62
2022-10-18T01:23:19.945Z,85.52
2022-10-18T01:26:24.543Z,85.74
2022-10-18T01:29:00.645Z,86.12
2022-10-18T01:31:35.322Z,86.23
2022-10-18T01:34:07.755Z,86.23
2022-10-18T01:36:40.384Z,86.28
2022-10-18T01:39:11.919Z,85.98
2022-10-18T01:41:41.693Z,86.49
2022-10-18T01:44:18.966Z,86.38
2022-10-18T01:46:47.071Z,86.99
2022-10-18T01:49:13.832Z,86.37
2022-10-18T01:51:40.571Z,87.05
2022-10-18T01:54:07.278Z,86.89
2022-10-18T01:56:42.716Z,86.94
2022-10-18T01:59:09.438Z,86.81
2022-10-18T02:02:17.161Z,87.24
2022-10-18T02:05:00.952Z,87.08
2022-10-18T02:07:43.675Z,86.60
2022-10-18T02:10:16.219Z,86.86
2022-10-18T02:12:46.657Z,86.06
2022-10-18T02:15:17.599Z,86.06
2022-10-18T02:17:46.730Z,86.52
2022-10-18T02:20:17.827Z,86.21
2022-10-18T02:22:46.020Z,86.25
2022-10-18T02:25:24.286Z,85.97
2022-10-18T02:27:54.735Z,86.24
2022-10-18T02:30:28.142Z,86.03
2022-10-18T02:33:04.353Z,85.89
2022-10-18T02:35:42.106Z,86.19
2022-10-18T02:38:11.493Z,86.00
2022-10-18T02:40:38.273Z,86.38
2022-10-18T02:43:07.000Z,86.63
2022-10-18T02:45:33.906Z,86.64
2022-10-18T02:48:00.509Z,86.38
2022-10-18T02:50:27.116Z,86.21
2022-10-18T02:52:54.435Z,87.05
2022-10-18T02:55:21.126Z,86.81
2022-10-18T02:57:47.988Z,87.17
2022-10-18T03:00:15.014Z,87.22
2022-10-18T03:02:41.622Z,87.26
2022-10-18T03:05:08.973Z,87.31
2022-10-18T03:07:35.688Z,86.97
2022-10-18T03:10:02.145Z,87.05
2022-10-18T03:12:32.390Z,87.04
2022-10-18T03:14:58.986Z,86.92
2022-10-18T03:17:25.537Z,87.14
2022-10-18T03:19:52.048Z,87.54
2022-10-18T03:22:18.734Z,87.45
2022-10-18T03:24:45.516Z,87.58
2022-10-18T03:27:13.755Z,87.96
2022-10-18T03:29:40.691Z,88.11
2022-10-18T03:32:08.096Z,87.43
2022-10-18T03:34:34.732Z,87.24
2022-10-18T03:37:04.669Z,86.97
2022-10-18T03:39:32.183Z,87.27
2022-10-18T03:41:58.822Z,87.63
2022-10-18T03:44:25.450Z,87.48
2022-10-18T03:46:51.973Z,87.60
2022-10-18T03:49:18.507Z,87.74
2022-10-18T03:51:45.132Z,87.32
2022-10-18T03:54:11.734Z,87.53
2022-10-18T03:56:38.289Z,88.07
2022-10-18T03:59:05.513Z,88.05
2022-10-18T04:01:32.217Z,87.73
2022-10-18T04:03:58.942Z,87.77
2022-10-18T04:06:25.483Z,87.57
2022-10-18T04:08:52.301Z,88.00
2022-10-18T04:11:18.866Z,88.15
2022-10-18T04:13:46.475Z,89.06
2022-10-18T04:16:13.095Z,88.82
2022-10-18T04:18:43.019Z,88.67
2022-10-18T04:21:09.542Z,89.35
2022-10-18T04:23:38.709Z,89.14
2022-10-18T04:26:06.039Z,89.18
2022-10-18T04:28:33.750Z,88.80
2022-10-18T04:31:00.452Z,88.72
2022-10-18T04:33:27.803Z,88.50
2022-10-18T04:35:54.385Z,88.78
2022-10-18T04:38:20.949Z,88.36
2022-10-18T04:40:47.501Z,88.39
2022-10-18T04:43:14.135Z,88.47
2022-10-18T04:45:40.671Z,88.39
2022-10-18T04:48:09.344Z,88.31
2022-10-18T04:50:35.977Z,88.10
2022-10-18T04:53:14.030Z,88.24
2022-10-18T04:55:46.789Z,87.99
2022-10-18T04:58:13.494Z,87.69
2022-10-18T05:00:40.702Z,87.83
2022-10-18T05:03:08.769Z,87.79
2022-10-18T05:05:49.730Z,87.69
2022-10-18T05:08:21.901Z,87.79
2022-10-18T05:10:49.013Z,87.25
2022-10-18T05:13:15.620Z,87.55
2022-10-18T05:15:42.403Z,87.62
2022-10-18T05:18:10.817Z,87.61
2022-10-18T05:20:37.352Z,87.46
2022-10-18T05:23:03.977Z,87.34
2022-10-18T05:25:30.724Z,87.48
2022-10-18T05:27:57.307Z,87.56
2022-10-18T05:30:23.883Z,87.44
2022-10-18T05:32:52.026Z,87.18
2022-10-18T05:35:18.560Z,86.58
2022-10-18T05:37:45.139Z,86.56
2022-10-18T05:40:13.824Z,86.73
2022-10-18T05:42:40.475Z,86.68
2022-10-18T05:45:07.573Z,86.88
2022-10-18T05:50:01.750Z,86.68
2022-10-18T05:52:28.336Z,86.62
2022-10-18T05:54:54.990Z,86.61
2022-10-18T05:57:21.647Z,86.62
2022-10-18T05:59:48.218Z,86.17
2022-10-18T06:02:15.611Z,86.20
2022-10-18T06:04:42.231Z,86.45
2022-10-18T06:07:12.615Z,86.57
2022-10-18T06:09:39.266Z,86.48
2022-10-18T06:12:06.217Z,86.59
2022-10-18T06:14:32.875Z,86.89
2022-10-18T06:17:00.033Z,86.81
2022-10-18T06:19:26.540Z,86.87
2022-10-18T06:21:53.080Z,86.99
2022-10-18T06:24:22.886Z,87.20
2022-10-18T06:26:49.977Z,86.96
2022-10-18T06:29:19.144Z,86.74
2022-10-18T06:31:46.176Z,86.65
2022-10-18T06:34:12.804Z,86.73
2022-10-18T06:36:39.444Z,86.73
2022-10-18T06:39:07.053Z,86.34
2022-10-18T06:41:33.571Z,86.03
2022-10-18T06:44:19.060Z,86.32
2022-10-18T06:46:48.128Z,86.41
2022-10-18T06:49:18.972Z,86.39
2022-10-18T06:51:47.091Z,86.07
2022-10-18T06:54:18.146Z,86.12
2022-10-18T06:56:45.613Z,85.86
2022-10-18T06:59:12.188Z,86.08
2022-10-18T07:01:39.021Z,85.94
2022-10-18T07:04:05.936Z,85.75
2022-10-18T07:06:33.549Z,86.09
2022-10-18T07:09:02.900Z,85.61
2022-10-18T07:11:29.656Z,85.61
2022-10-18T07:14:03.235Z,85.56
2022-10-18T07:16:31.896Z,85.47
2022-10-18T07:18:58.431Z,85.53
2022-10-18T07:21:27.096Z,85.56
2022-10-18T07:23:53.894Z,85.17
2022-10-18T07:26:25.019Z,84.89
2022-10-18T07:28:56.245Z,85.68
2022-10-18T07:31:24.135Z,85.13
2022-10-18T07:33:51.484Z,85.00
2022-10-18T07:36:18.264Z,85.28
2022-10-18T07:38:44.905Z,85.00
2022-10-18T07:41:13.542Z,85.14
2022-10-18T07:43:48.730Z,85.04
2022-10-18T07:46:16.033Z,84.88
2022-10-18T07:48:42.937Z,84.75
2022-10-18T07:51:11.900Z,84.39
2022-10-18T07:53:39.106Z,84.05
2022-10-18T07:56:11.489Z,83.35
2022-10-18T07:58:38.053Z,83.34
2022-10-18T08:01:06.523Z,83.56
2022-10-18T08:03:33.727Z,83.10
2022-10-18T08:06:00.402Z,83.02
2022-10-18T08:08:27.475Z,82.67
2022-10-18T08:10:55.508Z,83.48
2022-10-18T08:13:22.326Z,83.29
2022-10-18T08:15:48.944Z,83.53
2022-10-18T08:18:15.538Z,83.74
2022-10-18T08:20:45.821Z,83.39
2022-10-18T08:23:13.257Z,82.78
2022-10-18T08:25:40.244Z,82.99
2022-10-18T08:28:07.890Z,82.82
2022-10-18T08:30:35.424Z,82.47
2022-10-18T08:33:04.071Z,82.59
2022-10-18T08:35:31.798Z,82.29
2022-10-18T08:37:59.291Z,81.64
2022-10-18T08:40:30.277Z,82.00
2022-10-18T08:43:10.527Z,81.35
2022-10-18T08:45:42.775Z,80.87
2022-10-18T08:48:42.278Z,80.16
2022-10-18T08:51:27.049Z,79.76
2022-10-18T08:54:07.565Z,79.62
2022-10-18T08:56:35.122Z,79.46
2022-10-18T08:59:06.453Z,79.86
2022-10-18T09:01:58.858Z,80.04
2022-10-18T09:04:32.895Z,80.21
2022-10-18T09:07:10.161Z,79.86
2022-10-18T09:09:50.966Z,80.12
2022-10-18T09:12:39.325Z,80.25
2022-10-18T09:15:32.545Z,80.07
2022-10-18T09:18:12.919Z,79.93
2022-10-18T09:20:52.683Z,80.22
2022-10-18T09:23:47.416Z,79.80
2022-10-18T09:26:21.078Z,79.77
2022-10-18T09:29:26.168Z,79.71
2022-10-18T09:32:04.556Z,79.90
2022-10-18T09:34:43.127Z,79.18
2022-10-18T09:37:14.659Z,79.17
2022-10-18T09:39:42.128Z,78.23
2022-10-18T09:42:16.091Z,78.31
2022-10-18T09:44:48.885Z,77.73
2022-10-18T09:47:25.314Z,77.31
2022-10-18T09:50:02.725Z,76.96
2022-10-18T09:52:42.392Z,76.67
2022-10-18T09:55:17.300Z,75.96
2022-10-18T09:57:49.250Z,75.17
2022-10-18T10:00:22.688Z,75.12
2022-10-18T10:02:49.330Z,74.92
2022-10-18T10:05:16.130Z,74.43
2022-10-18T10:07:47.843Z,73.60
2022-10-18T10:10:26.131Z,73.58
2022-10-18T10:13:05.090Z,74.05
2022-10-18T10:15:37.078Z,74.78
2022-10-18T10:18:30.181Z,75.48
2022-10-18T10:21:01.052Z,75.53
2022-10-18T10:23:36.184Z,75.76
2022-10-18T10:26:32.154Z,75.81
2022-10-18T10:28:58.903Z,76.18
2022-10-18T10:31:25.427Z,76.22
2022-10-18T10:34:20.170Z,76.31
2022-10-18T10:36:52.301Z,76.70
2022-10-18T10:39:22.159Z,76.29
2022-10-18T10:41:54.104Z,75.19
2022-10-18T10:44:27.072Z,74.46
2022-10-18T10:46:54.975Z,74.35
2022-10-18T10:49:40.238Z,73.26
2022-10-18T10:52:37.110Z,72.63
2022-10-18T10:55:30.433Z,72.60
2022-10-18T10:57:55.471Z,72.52
2022-10-18T11:00:44.382Z,73.38
2022-10-18T11:03:27.738Z,73.74
2022-10-18T11:05:57.993Z,73.61
2022-10-18T11:08:29.594Z,73.94
2022-10-18T11:11:01.245Z,74.13
2022-10-18T11:13:44.415Z,73.89
2022-10-18T11:16:21.704Z,74.05
2022-10-18T11:18:51.218Z,73.92
2022-10-18T11:21:25.772Z,73.16
2022-10-18T11:23:52.804Z,72.92
2022-10-18T11:26:36.962Z,72.14
2022-10-18T11:29:35.574Z,70.37
2022-10-18T11:32:21.214Z,70.04
2022-10-18T11:35:19.754Z,69.22
2022-10-18T11:38:06.198Z,68.65
2022-10-18T11:40:52.181Z,68.74
2022-10-18T11:44:02.283Z,69.73
2022-10-18T11:46:49.929Z,70.37
2022-10-18T11:49:23.197Z,70.88
2022-10-18T11:52:33.664Z,71.10
2022-10-18T11:55:10.843Z,70.15
2022-10-18T11:58:11.027Z,68.77
2022-10-18T12:00:50.462Z,66.88
2022-10-18T12:03:34.555Z,66.27
2022-10-18T12:06:06.818Z,64.54
2022-10-18T12:08:57.609Z,63.41
2022-10-18T12:11:30.763Z,60.40
2022-10-18T12:14:01.247Z,59.86
2022-10-18T12:16:50.400Z,58.42
2022-10-18T12:19:27.014Z,57.96
2022-10-18T12:21:57.549Z,57.62
2022-10-18T12:24:28.713Z,57.09
2022-10-18T12:27:00.558Z,57.15
2022-10-18T12:29:40.088Z,56.71
2022-10-18T12:32:16.206Z,56.23
2022-10-18T12:34:46.099Z,56.35
2022-10-18T12:37:21.664Z,56.68
2022-10-18T12:40:12.121Z,56.08
2022-10-18T12:42:44.041Z,57.35
2022-10-18T12:45:13.783Z,58.22
2022-10-18T12:47:40.781Z,57.72
2022-10-18T12:50:31.058Z,57.10
2022-10-18T12:53:10.182Z,57.92
2022-10-18T12:55:40.831Z,58.45
2022-10-18T12:58:13.469Z,58.79
2022-10-18T13:00:43.165Z,59.02
2022-10-18T13:03:12.600Z,59.69
2022-10-18T13:05:56.968Z,60.83
2022-10-18T13:08:38.099Z,60.80
2022-10-18T13:11:10.520Z,60.41
2022-10-18T13:14:02.142Z,60.31
2022-10-18T13:16:51.190Z,61.35
2022-10-18T13:19:21.688Z,60.49
2022-10-18T13:22:20.476Z,59.37
2022-10-18T13:25:46.693Z,59.81
2022-10-18T13:28:37.406Z,60.80
2022-10-18T13:31:23.583Z,61.42
2022-10-18T13:33:50.765Z,61.01
2022-10-18T13:36:22.562Z,61.46
2022-10-18T13:38:50.190Z,62.20
2022-10-18T13:43:52.545Z,61.27
2022-10-18T13:46:34.745Z,61.51
2022-10-18T13:49:28.335Z,62.17
2022-10-18T13:52:28.506Z,61.29
2022-10-18T13:55:22.771Z,59.71
2022-10-18T13:58:15.736Z,59.54
2022-10-18T14:01:00.197Z,60.96
2022-10-18T14:03:55.767Z,61.23
2022-10-18T14:06:38.637Z,61.64
2022-10-18T14:09:26.076Z,60.84
2022-10-18T14:12:30.792Z,60.59
2022-10-18T14:15:15.800Z,60.27
2022-10-18T14:17:52.201Z,60.49
2022-10-18T14:20:49.066Z,59.83
2022-10-18T14:23:48.210Z,60.97
2022-10-18T14:26:19.735Z,61.29
2022-10-18T14:29:03.048Z,60.80
2022-10-18T14:31:30.207Z,61.47
2022-10-18T14:33:58.882Z,62.06
2022-10-18T14:36:40.932Z,62.27
2022-10-18T14:39:19.075Z,62.73
2022-10-18T14:41:54.227Z,62.41
2022-10-18T14:44:26.429Z,63.25
2022-10-18T14:46:58.921Z,63.60
2022-10-18T14:49:25.596Z,64.29
2022-10-18T14:51:55.037Z,64.25
2022-10-18T14:54:37.801Z,64.96
2022-10-18T14:57:06.929Z,65.15
2022-10-18T14:59:52.262Z,65.93
2022-10-18T15:02:26.940Z,65.48
2022-10-18T15:05:10.656Z,65.32
2022-10-18T15:07:37.472Z,65.61
2022-10-18T15:10:05.419Z,66.24
2022-10-18T15:13:08.251Z,67.08
2022-10-18T15:15:32.873Z,66.71
2022-10-18T15:18:00.615Z,66.78
2022-10-18T15:20:31.836Z,67.13
2022-10-18T15:23:23.800Z,67.82
2022-10-18T15:25:52.837Z,68.22
2022-10-18T15:28:50.280Z,68.35
2022-10-18T15:31:26.762Z,67.78
2022-10-18T15:34:07.665Z,68.09
2022-10-18T15:36:35.284Z,68.37
2022-10-18T15:39:16.528Z,68.36
2022-10-18T15:41:48.879Z,68.34
2022-10-18T15:44:36.054Z,68.26
2022-10-18T15:47:11.697Z,68.80
2022-10-18T15:49:45.248Z,68.81
2022-10-18T15:52:40.692Z,68.35
2022-10-18T15:55:29.115Z,69.08
2022-10-18T15:58:39.296Z,69.04
2022-10-18T16:01:15.381Z,68.78
2022-10-18T16:03:43.036Z,69.05
2022-10-18T16:06:13.435Z,69.58
2022-10-18T16:08:48.751Z,69.84
2022-10-18T16:11:18.144Z,70.08
2022-10-18T16:13:45.115Z,70.35
2022-10-18T16:16:19.400Z,70.28
2022-10-18T16:18:47.476Z,70.56
2022-10-18T16:21:21.258Z,71.11
2022-10-18T16:23:49.240Z,71.15
2022-10-18T16:26:17.008Z,71.15
2022-10-18T16:28:45.487Z,71.26
2022-10-18T16:31:16.843Z,71.37
2022-10-18T16:33:43.997Z,71.75
2022-10-18T16:36:19.658Z,72.12
2022-10-18T16:38:47.412Z,73.29
2022-10-18T16:41:15.802Z,72.37
2022-10-18T16:43:47.023Z,72.96
2022-10-18T16:46:18.725Z,73.30
2022-10-18T16:48:46.664Z,73.29
2022-10-18T16:51:13.234Z,73.63
2022-10-18T16:53:39.849Z,73.85
2022-10-18T16:56:33.113Z,73.94
2022-10-18T16:59:00.228Z,74.50
2022-10-18T17:01:26.996Z,74.56
2022-10-18T17:03:56.138Z,74.70
2022-10-18T17:06:26.327Z,75.45
2022-10-18T17:08:54.596Z,75.40
2022-10-18T17:11:27.268Z,75.95
2022-10-18T17:13:55.078Z,76.20
2022-10-18T17:16:24.718Z,76.46
2022-10-18T17:18:51.729Z,77.05
2022-10-18T17:21:18.340Z,77.12
2022-10-18T17:23:45.770Z,77.14
2022-10-18T17:26:28.883Z,77.84
2022-10-18T17:29:05.680Z,78.26
2022-10-18T17:31:34.278Z,78.32
2022-10-18T17:34:01.890Z,78.16
2022-10-18T17:36:32.346Z,79.06
2022-10-18T17:38:59.116Z,78.88
2022-10-18T17:41:26.470Z,79.16
2022-10-18T17:43:53.310Z,79.29
2022-10-18T17:46:20.276Z,79.04
2022-10-18T17:48:47.134Z,80.33
2022-10-18T17:51:16.577Z,80.72
2022-10-18T17:53:43.496Z,81.39
2022-10-18T17:56:11.238Z,81.58
2022-10-18T17:58:37.829Z,81.77
2022-10-18T18:01:16.982Z,82.03
2022-10-18T18:03:44.049Z,82.50
2022-10-18T18:06:20.293Z,82.53
2022-10-18T18:08:47.769Z,82.49
2022-10-18T18:11:15.272Z,82.96
2022-10-18T18:13:42.508Z,83.36
2022-10-18T18:16:14.007Z,83.05
2022-10-18T18:18:41.027Z,83.37
2022-10-18T18:21:07.670Z,84.09
2022-10-18T18:23:35.769Z,83.68
2022-10-18T18:26:02.460Z,84.30
2022-10-18T18:28:30.149Z,84.01
2022-10-18T18:30:56.987Z,84.66
2022-10-18T18:33:23.595Z,84.69
2022-10-18T18:35:57.744Z,84.70
2022-10-18T18:38:25.620Z,85.19
2022-10-18T18:41:07.603Z,85.48
2022-10-18T18:43:34.895Z,86.54
2022-10-18T18:46:01.810Z,86.36
2022-10-18T18:48:31.438Z,86.30
2022-10-18T18:50:57.992Z,85.85
2022-10-18T18:53:29.701Z,86.42
2022-10-18T18:56:05.150Z,86.29
2022-10-18T18:58:32.400Z,86.29
2022-10-18T19:00:58.990Z,86.12
2022-10-18T19:03:26.333Z,86.20
2022-10-18T19:06:02.417Z,86.17
2022-10-18T19:08:31.753Z,86.48
2022-10-18T19:10:58.294Z,86.75
2022-10-18T19:13:25.599Z,86.92
2022-10-18T19:15:52.301Z,86.78
2022-10-18T19:18:23.178Z,86.74
2022-10-18T19:20:50.674Z,87.03
2022-10-18T19:23:17.299Z,87.09
2022-10-18T19:25:43.986Z,86.80
2022-10-18T19:28:10.577Z,86.62
2022-10-18T19:30:37.781Z,87.16
2022-10-18T19:33:04.691Z,87.68
2022-10-18T19:35:31.362Z,87.21
2022-10-18T19:37:57.914Z,87.15
2022-10-18T19:40:24.584Z,87.65
2022-10-18T19:42:51.177Z,87.71
2022-10-18T19:45:17.869Z,87.49
2022-10-18T19:47:44.443Z,87.38
2022-10-18T19:50:11.158Z,87.95
2022-10-18T19:52:37.873Z,87.33
2022-10-18T19:55:05.046Z,87.50
2022-10-18T19:57:31.593Z,87.79
2022-10-18T20:00:00.786Z,87.41
2022-10-18T20:02:38.297Z,87.85
2022-10-18T20:05:05.377Z,88.24
2022-10-18T20:07:32.035Z,87.87
2022-10-18T20:09:59.928Z,87.84
2022-10-18T20:12:26.910Z,87.94
2022-10-18T20:14:54.079Z,88.08
2022-10-18T20:17:20.927Z,88.55
2022-10-18T20:19:48.646Z,88.71
2022-10-18T20:22:15.505Z,88.50
2022-10-18T20:24:42.368Z,87.87
2022-10-18T20:27:09.343Z,87.94
2022-10-18T20:29:36.087Z,88.70
2022-10-18T20:32:02.784Z,88.53
2022-10-18T20:34:29.525Z,88.38
2022-10-18T20:36:56.182Z,88.35
2022-10-18T20:39:22.917Z,88.67
2022-10-18T20:41:49.664Z,88.65
2022-10-18T20:44:19.453Z,88.51
2022-10-18T20:46:46.985Z,88.57
2022-10-18T20:49:15.847Z,88.87
2022-10-18T20:51:42.967Z,88.45
2022-10-18T20:54:10.892Z,88.94
2022-10-18T20:56:40.140Z,88.91
2022-10-18T20:59:09.690Z,89.08
2022-10-18T21:01:38.611Z,88.51
2022-10-18T21:04:07.985Z,88.90
2022-10-18T21:06:41.135Z,88.31
2022-10-18T21:09:11.994Z,89.01
2022-10-18T21:11:41.782Z,88.87
2022-10-18T21:14:12.816Z,88.86
2022-10-18T21:16:39.681Z,88.99
2022-10-18T21:19:08.802Z,88.58
2022-10-18T21:21:35.794Z,89.00
2022-10-18T21:24:06.869Z,88.62
2022-10-18T21:26:35.359Z,88.99
2022-10-18T21:29:03.421Z,88.59
2022-10-18T21:31:33.793Z,88.64
2022-10-18T21:34:05.929Z,89.19
2022-10-18T21:36:35.244Z,88.98
2022-10-18T21:39:07.290Z,89.16
2022-10-18T21:41:34.767Z,89.15
2022-10-18T21:44:04.469Z,88.85
2022-10-18T21:46:34.848Z,88.52
2022-10-18T21:49:01.511Z,89.20
2022-10-18T21:51:29.125Z,88.45
2022-10-18T21:53:58.189Z,88.33
2022-10-18T21:56:30.652Z,88.50
2022-10-18T21:58:57.948Z,88.66
2022-10-18T22:01:27.941Z,88.77
2022-10-18T22:03:56.619Z,88.79
2022-10-18T22:06:24.366Z,88.64
2022-10-18T22:08:53.905Z,89.08
2022-10-18T22:11:24.386Z,88.62
2022-10-18T22:13:52.535Z,88.94
2022-10-18T22:16:19.664Z,88.35
2022-10-18T22:18:48.284Z,88.72
2022-10-18T22:21:17.164Z,89.33
2022-10-18T22:23:51.179Z,89.11
2022-10-18T22:26:19.773Z,88.72
2022-10-18T22:28:55.370Z,89.10
2022-10-18T22:31:25.323Z,89.47
2022-10-18T22:33:57.407Z,88.61
2022-10-18T22:36:24.886Z,88.96
2022-10-18T22:38:51.732Z,88.42
2022-10-18T22:41:19.874Z,88.80
2022-10-18T22:43:47.690Z,88.53
2022-10-18T22:46:15.227Z,88.80
2022-10-18T22:48:42.449Z,88.60
2022-10-18T22:51:11.147Z,88.65
2022-10-18T22:53:39.805Z,88.71
2022-10-18T22:56:11.211Z,88.66
2022-10-18T22:58:37.798Z,88.66
2022-10-18T23:01:07.845Z,88.99
2022-10-18T23:03:36.682Z,89.12
2022-10-18T23:06:03.751Z,89.16
2022-10-18T23:08:32.564Z,89.11
2022-10-18T23:11:00.326Z,89.57
2022-10-18T23:13:28.063Z,89.41
2022-10-18T23:16:04.369Z,88.98
2022-10-18T23:18:32.495Z,89.23
2022-10-18T23:21:07.385Z,88.82
2022-10-18T23:23:35.782Z,88.79
2022-10-18T23:26:04.738Z,88.91
2022-10-18T23:28:37.093Z,88.75
2022-10-18T23:31:18.936Z,89.05
2022-10-18T23:33:48.794Z,89.50
2022-10-18T23:36:16.103Z,89.66
2022-10-18T23:38:43.793Z,89.50
2022-10-18T23:41:13.375Z,89.56
2022-10-18T23:43:40.767Z,89.87
2022-10-18T23:46:07.570Z,90.42
2022-10-18T23:48:34.327Z,90.09
2022-10-18T23:51:02.219Z,90.08
2022-10-18T23:53:29.216Z,90.05
2022-10-18T23:55:58.597Z,89.65
2022-10-18T23:58:26.464Z,90.05
